createdAt,value
2018-12-01T00:00:34.107Z,33.67
2018-12-01T00:03:13.431Z,28.33
2018-12-01T00:05:52.178Z,30.00
2018-12-01T00:08:28.645Z,32.00
2018-12-01T00:11:09.781Z,28.00
2018-12-01T00:13:46.192Z,29.33
2018-12-01T00:16:25.853Z,27.67
2018-12-01T00:19:00.551Z,27.00
2018-12-01T00:21:36.516Z,26.33
2018-12-01T00:24:10.209Z,28.67
2018-12-01T00:26:45.466Z,27.67
2018-12-01T00:29:23.273Z,24.67
2018-12-01T00:31:58.295Z,29.00
2018-12-01T00:34:33.818Z,25.67
2018-12-01T00:37:10.017Z,32.33
2018-12-01T00:39:46.198Z,28.67
2018-12-01T00:42:24.614Z,33.00
2018-12-01T00:45:01.267Z,25.33
2018-12-01T00:47:39.210Z,33.67
2018-12-01T00:50:16.725Z,35.00
2018-12-01T00:52:52.511Z,30.67
2018-12-01T00:55:34.435Z,33.33
2018-12-01T00:58:11.227Z,26.67
2018-12-01T01:00:47.962Z,25.33
2018-12-01T01:03:22.821Z,33.00
2018-12-01T01:06:01.784Z,23.67
2018-12-01T01:08:37.697Z,28.00
2018-12-01T01:11:14.337Z,34.33
2018-12-01T01:13:53.747Z,31.33
2018-12-01T01:16:26.140Z,30.67
2018-12-01T01:19:02.571Z,35.33
2018-12-01T01:21:40.357Z,32.00
2018-12-01T01:27:01.898Z,37.00
2018-12-01T01:29:34.345Z,39.67
2018-12-01T01:32:11.663Z,30.67
2018-12-01T01:34:48.890Z,28.67
2018-12-01T01:37:23.321Z,33.67
2018-12-01T01:40:00.025Z,33.00
2018-12-01T01:42:33.432Z,30.33
2018-12-01T01:45:11.341Z,32.00
2018-12-01T01:47:45.092Z,31.67
2018-12-01T01:50:21.422Z,31.33
2018-12-01T01:52:56.236Z,33.00
2018-12-01T01:55:37.019Z,33.67
2018-12-01T01:58:13.665Z,28.33
2018-12-01T02:00:56.700Z,24.67
2018-12-01T02:03:31.372Z,30.33
2018-12-01T02:06:08.457Z,31.67
2018-12-01T02:08:43.434Z,33.33
2018-12-01T02:11:19.407Z,31.00
2018-12-01T02:13:52.421Z,32.33
2018-12-01T02:16:28.872Z,28.67
2018-12-01T02:19:05.761Z,30.67
2018-12-01T02:21:42.468Z,28.33
2018-12-01T02:24:18.546Z,32.33
2018-12-01T02:26:54.752Z,29.67
2018-12-01T02:29:32.243Z,27.33
2018-12-01T02:32:08.597Z,26.00
2018-12-01T02:34:45.567Z,30.33
2018-12-01T02:37:19.319Z,33.33
2018-12-01T02:39:54.513Z,30.33
2018-12-01T02:42:28.550Z,32.33
2018-12-01T02:45:14.240Z,34.33
2018-12-01T02:47:51.184Z,32.33
2018-12-01T02:50:32.472Z,28.67
2018-12-01T02:53:06.274Z,29.00
2018-12-01T02:55:40.666Z,24.00
2018-12-01T03:00:50.254Z,23.33
2018-12-01T03:03:26.185Z,25.33
2018-12-01T03:06:02.516Z,27.33
2018-12-01T03:08:40.605Z,27.33
2018-12-01T03:11:15.435Z,24.00
2018-12-01T03:13:55.857Z,24.00
2018-12-01T03:16:43.478Z,27.00
2018-12-01T03:19:17.800Z,24.67
2018-12-01T03:21:49.677Z,29.33
2018-12-01T03:24:25.643Z,25.67
2018-12-01T03:27:02.538Z,22.67
2018-12-01T03:29:36.935Z,24.33
2018-12-01T03:34:48.873Z,28.00
2018-12-01T03:37:23.540Z,27.67
2018-12-01T03:39:56.608Z,26.00
2018-12-01T03:42:35.054Z,29.67
2018-12-01T03:45:07.048Z,26.00
2018-12-01T03:47:41.394Z,29.00
2018-12-01T03:50:20.863Z,27.00
2018-12-01T03:52:57.730Z,26.33
2018-12-01T03:55:32.994Z,25.00
2018-12-01T03:58:04.488Z,24.33
2018-12-01T04:00:39.924Z,25.00
2018-12-01T04:03:17.552Z,24.00
2018-12-01T04:05:50.659Z,25.33
2018-12-01T04:08:26.593Z,22.00
2018-12-01T04:11:00.367Z,20.00
2018-12-01T04:13:33.494Z,22.00
2018-12-01T04:16:06.542Z,20.00
2018-12-01T04:18:40.117Z,22.67
2018-12-01T04:21:13.831Z,21.67
2018-12-01T04:23:46.403Z,23.00
2018-12-01T04:26:22.586Z,23.67
2018-12-01T04:28:59.629Z,26.00
2018-12-01T04:33:50.178Z,27.00
2018-12-01T04:36:31.738Z,23.67
2018-12-01T04:39:03.680Z,25.67
2018-12-01T04:41:34.713Z,22.33
2018-12-01T04:44:07.272Z,24.00
2018-12-01T04:46:38.709Z,20.00
2018-12-01T04:49:10.340Z,22.00
2018-12-01T04:51:48.325Z,20.00
2018-12-01T04:54:24.944Z,24.00
2018-12-01T04:57:01.346Z,22.67
2018-12-01T04:59:36.625Z,24.00
2018-12-01T05:02:12.850Z,25.33
2018-12-01T05:04:46.975Z,18.67
2018-12-01T05:07:21.125Z,22.67
2018-12-01T05:09:54.779Z,17.67
2018-12-01T05:12:30.111Z,23.33
2018-12-01T05:15:06.553Z,19.00
2018-12-01T05:17:41.526Z,22.67
2018-12-01T05:20:17.378Z,24.00
2018-12-01T05:22:52.196Z,21.00
2018-12-01T05:25:28.760Z,21.33
2018-12-01T05:28:04.516Z,23.33
2018-12-01T05:30:35.841Z,21.67
2018-12-01T05:33:19.697Z,26.00
2018-12-01T05:35:55.946Z,21.33
2018-12-01T05:38:29.619Z,22.67
2018-12-01T05:41:03.389Z,20.33
2018-12-01T05:43:39.304Z,20.67
2018-12-01T05:46:15.801Z,21.67
2018-12-01T05:51:40.966Z,20.33
2018-12-01T05:54:14.429Z,20.67
2018-12-01T05:56:48.370Z,20.67
2018-12-01T05:59:26.262Z,18.00
2018-12-01T06:02:02.201Z,20.00
2018-12-01T06:04:37.330Z,21.33
2018-12-01T06:07:10.242Z,18.67
2018-12-01T06:09:46.956Z,22.00
2018-12-01T06:12:21.666Z,17.67
2018-12-01T06:14:53.309Z,19.33
2018-12-01T06:17:28.863Z,22.00
2018-12-01T06:20:01.118Z,25.67
2018-12-01T06:22:34.144Z,28.67
2018-12-01T06:25:06.691Z,25.33
2018-12-01T06:27:41.646Z,25.67
2018-12-01T06:30:18.776Z,28.33
2018-12-01T06:32:54.577Z,24.00
2018-12-01T06:35:30.852Z,24.00
2018-12-01T06:38:12.461Z,27.00
2018-12-01T06:40:50.649Z,25.67
2018-12-01T06:46:02.358Z,29.00
2018-12-01T06:48:33.761Z,26.33
2018-12-01T06:51:11.712Z,26.33
2018-12-01T06:53:44.811Z,24.33
2018-12-01T06:56:20.027Z,25.67
2018-12-01T06:58:56.449Z,24.33
2018-12-01T07:01:35.320Z,28.00
2018-12-01T07:04:06.599Z,25.00
2018-12-01T07:06:38.644Z,30.67
2018-12-01T07:09:19.097Z,23.33
2018-12-01T07:11:53.258Z,25.00
2018-12-01T07:14:27.296Z,29.67
2018-12-01T07:17:02.267Z,28.00
2018-12-01T07:19:36.706Z,23.67
2018-12-01T07:22:10.468Z,26.00
2018-12-01T07:24:50.858Z,26.00
2018-12-01T07:27:27.334Z,29.33
2018-12-01T07:30:02.330Z,21.67
2018-12-01T07:32:35.166Z,24.00
2018-12-01T07:35:07.746Z,18.67
2018-12-01T07:37:39.978Z,24.67
2018-12-01T07:40:17.125Z,22.00
2018-12-01T07:42:51.114Z,22.00
2018-12-01T07:45:26.597Z,30.00
2018-12-01T07:48:02.115Z,25.33
2018-12-01T07:50:35.421Z,24.33
2018-12-01T07:53:10.818Z,24.00
2018-12-01T07:55:42.322Z,21.00
2018-12-01T07:58:18.589Z,21.67
2018-12-01T08:00:52.918Z,20.67
2018-12-01T08:03:24.785Z,24.67
2018-12-01T08:05:56.632Z,27.33
2018-12-01T08:08:30.875Z,22.00
2018-12-01T08:11:07.945Z,23.33
2018-12-01T08:13:43.210Z,23.67
2018-12-01T08:16:16.546Z,24.67
2018-12-01T08:18:48.947Z,21.67
2018-12-01T08:21:23.704Z,22.33
2018-12-01T08:23:59.768Z,21.67
2018-12-01T08:26:35.991Z,21.33
2018-12-01T08:29:10.077Z,23.00
2018-12-01T08:31:44.967Z,24.33
2018-12-01T08:34:19.493Z,20.33
2018-12-01T08:36:52.956Z,25.00
2018-12-01T08:39:28.773Z,21.00
2018-12-01T08:42:01.981Z,22.33
2018-12-01T08:44:36.603Z,24.33
2018-12-01T08:47:11.433Z,25.67
2018-12-01T08:49:45.344Z,21.00
2018-12-01T08:52:20.810Z,24.67
2018-12-01T08:54:55.832Z,25.00
2018-12-01T08:57:33.312Z,23.33
2018-12-01T09:00:05.278Z,26.67
2018-12-01T09:02:40.626Z,27.67
2018-12-01T09:05:15.562Z,28.00
2018-12-01T09:07:49.866Z,27.00
2018-12-01T09:10:24.495Z,26.00
2018-12-01T09:13:04.150Z,26.00
2018-12-01T09:15:37.433Z,27.00
2018-12-01T09:18:08.804Z,21.00
2018-12-01T09:20:41.902Z,23.67
2018-12-01T09:23:17.196Z,23.67
2018-12-01T09:25:51.008Z,23.00
2018-12-01T09:28:28.269Z,25.00
2018-12-01T09:31:03.477Z,27.67
2018-12-01T09:33:39.182Z,23.33
2018-12-01T09:36:13.668Z,21.33
2018-12-01T09:38:45.936Z,30.33
2018-12-01T09:41:19.831Z,33.67
2018-12-01T09:43:59.047Z,32.67
2018-12-01T09:46:36.212Z,26.00
2018-12-01T09:49:09.502Z,24.67
2018-12-01T09:51:40.630Z,24.67
2018-12-01T09:54:15.298Z,26.00
2018-12-01T09:56:49.018Z,25.33
2018-12-01T10:02:01.115Z,30.33
2018-12-01T10:04:38.070Z,28.33
2018-12-01T10:07:12.815Z,23.67
2018-12-01T10:09:46.412Z,28.00
2018-12-01T10:12:21.936Z,24.67
2018-12-01T10:15:00.241Z,28.67
2018-12-01T10:17:35.846Z,29.67
2018-12-01T10:20:12.301Z,27.00
2018-12-01T10:22:46.261Z,29.67
2018-12-01T10:25:18.937Z,24.33
2018-12-01T10:27:52.993Z,29.00
2018-12-01T10:30:30.913Z,26.33
2018-12-01T10:33:03.649Z,28.00
2018-12-01T10:35:46.624Z,29.00
2018-12-01T10:41:08.746Z,28.67
2018-12-01T10:43:42.828Z,25.33
2018-12-01T10:46:20.149Z,26.67
2018-12-01T10:48:54.126Z,27.67
2018-12-01T10:51:29.249Z,29.00
2018-12-01T10:54:05.421Z,30.67
2018-12-01T10:56:43.815Z,25.00
2018-12-01T10:59:16.620Z,31.33
2018-12-01T11:01:56.561Z,25.00
2018-12-01T11:04:35.271Z,25.67
2018-12-01T11:07:08.797Z,22.33
2018-12-01T11:09:42.471Z,26.00
2018-12-01T11:12:19.182Z,24.33
2018-12-01T11:14:52.757Z,24.67
2018-12-01T11:17:28.497Z,28.33
2018-12-01T11:20:02.853Z,22.67
2018-12-01T11:22:41.299Z,22.67
2018-12-01T11:25:15.930Z,26.33
2018-12-01T11:27:57.517Z,24.00
2018-12-01T11:30:30.617Z,22.67
2018-12-01T11:33:06.086Z,24.33
2018-12-01T11:35:43.327Z,26.67
2018-12-01T11:38:19.019Z,24.33
2018-12-01T11:40:56.361Z,22.33
2018-12-01T11:43:35.462Z,26.33
2018-12-01T11:46:14.431Z,25.67
2018-12-01T11:48:51.227Z,28.33
2018-12-01T11:51:29.532Z,27.67
2018-12-01T11:54:04.067Z,28.00
2018-12-01T11:56:42.599Z,30.33
2018-12-01T11:59:16.810Z,25.33
2018-12-01T12:01:50.147Z,25.00
2018-12-01T12:04:22.617Z,24.33
2018-12-01T12:06:58.826Z,25.00
2018-12-01T12:09:32.341Z,24.33
2018-12-01T12:12:08.600Z,21.67
2018-12-01T12:14:43.323Z,18.67
2018-12-01T12:17:21.672Z,22.67
2018-12-01T12:19:54.947Z,21.67
2018-12-01T12:22:29.978Z,22.67
2018-12-01T12:25:07.231Z,29.33
2018-12-01T12:27:42.461Z,25.00
2018-12-01T12:30:25.970Z,26.67
2018-12-01T12:32:56.949Z,25.33
2018-12-01T12:35:34.971Z,23.00
2018-12-01T12:38:12.660Z,24.00
2018-12-01T12:40:51.377Z,31.33
2018-12-01T12:43:28.426Z,23.00
2018-12-01T12:46:07.682Z,26.67
2018-12-01T12:48:43.893Z,26.00
2018-12-01T12:51:18.787Z,24.67
2018-12-01T12:53:56.189Z,24.67
2018-12-01T12:56:30.080Z,24.00
2018-12-01T12:59:18.426Z,22.67
2018-12-01T13:01:59.269Z,22.33
2018-12-01T13:04:35.451Z,19.00
2018-12-01T13:07:08.602Z,19.00
2018-12-01T13:09:48.647Z,19.00
2018-12-01T13:12:26.523Z,20.67
2018-12-01T13:15:04.677Z,21.67
2018-12-01T13:17:38.742Z,18.67
2018-12-01T13:20:18.287Z,21.33
2018-12-01T13:22:56.501Z,18.33
2018-12-01T13:25:30.401Z,18.33
2018-12-01T13:28:15.061Z,15.00
2018-12-01T13:30:54.771Z,17.00
2018-12-01T13:33:27.530Z,15.67
2018-12-01T13:36:02.373Z,17.00
2018-12-01T13:38:36.386Z,15.67
2018-12-01T13:41:12.944Z,17.00
2018-12-01T13:43:47.236Z,14.33
2018-12-01T13:46:26.810Z,17.00
2018-12-01T13:49:01.816Z,14.67
2018-12-01T13:51:35.722Z,15.00
2018-12-01T13:54:12.746Z,16.67
2018-12-01T13:56:47.429Z,12.33
2018-12-01T13:59:24.548Z,11.67
2018-12-01T14:02:05.922Z,15.00
2018-12-01T14:04:41.383Z,12.00
2018-12-01T14:07:16.327Z,11.33
2018-12-01T14:09:49.863Z,10.33
2018-12-01T14:12:26.570Z,11.33
2018-12-01T14:15:03.046Z,10.00
2018-12-01T14:17:39.276Z,13.33
2018-12-01T14:20:18.554Z,10.75
2018-12-01T14:22:52.645Z,10.33
2018-12-01T14:25:28.241Z,10.00
2018-12-01T14:28:05.394Z,12.67
2018-12-01T14:30:40.402Z,12.00
2018-12-01T14:33:18.236Z,10.00
2018-12-01T14:35:53.668Z,11.33
2018-12-01T14:38:27.789Z,14.67
2018-12-01T14:41:03.828Z,14.00
2018-12-01T14:43:39.486Z,12.67
2018-12-01T14:46:15.355Z,15.00
2018-12-01T14:48:53.126Z,12.33
2018-12-01T14:51:28.358Z,10.67
2018-12-01T14:54:04.491Z,16.33
2018-12-01T14:56:42.002Z,11.67
2018-12-01T14:59:16.924Z,8.67
2018-12-01T15:01:49.936Z,10.33
2018-12-01T15:04:25.534Z,11.33
2018-12-01T15:07:00.551Z,10.33
2018-12-01T15:09:37.403Z,11.67
2018-12-01T15:12:15.138Z,14.33
2018-12-01T15:14:54.536Z,14.00
2018-12-01T15:17:31.553Z,15.00
2018-12-01T15:20:08.723Z,22.00
2018-12-01T15:22:45.414Z,27.33
2018-12-01T15:25:22.985Z,8.67
2018-12-01T15:27:58.814Z,10.00
2018-12-01T15:30:46.655Z,14.00
2018-12-01T15:33:21.182Z,12.00
2018-12-01T15:35:59.917Z,15.67
2018-12-01T15:38:35.015Z,12.50
2018-12-01T15:41:15.129Z,16.33
2018-12-01T15:43:55.567Z,14.00
2018-12-01T15:46:33.398Z,14.00
2018-12-01T15:49:10.129Z,14.00
2018-12-01T15:51:45.009Z,10.67
2018-12-01T15:54:19.801Z,12.00
2018-12-01T15:56:57.546Z,7.80
2018-12-01T15:59:31.625Z,9.00
2018-12-01T16:08:35.318Z,13.33
2018-12-01T16:11:09.497Z,16.00
2018-12-01T16:13:45.922Z,18.00
2018-12-01T16:16:22.699Z,22.33
2018-12-01T16:18:57.330Z,18.67
2018-12-01T16:21:32.916Z,21.00
2018-12-01T16:24:13.469Z,34.67
2018-12-01T16:26:50.112Z,28.67
2018-12-01T16:29:26.947Z,22.67
2018-12-01T16:32:01.989Z,25.67
2018-12-01T16:34:40.713Z,24.00
2018-12-01T16:37:15.456Z,23.33
2018-12-01T16:39:50.473Z,30.67
2018-12-01T16:42:30.043Z,17.00
2018-12-01T16:45:04.615Z,18.67
2018-12-01T16:47:42.349Z,23.67
2018-12-01T16:50:16.596Z,16.33
2018-12-01T16:52:50.822Z,15.00
2018-12-01T16:55:25.474Z,13.67
2018-12-01T16:58:00.864Z,15.67
2018-12-01T17:00:37.485Z,12.33
2018-12-01T17:03:15.941Z,13.00
2018-12-01T17:05:56.935Z,15.67
2018-12-01T17:08:35.705Z,12.67
2018-12-01T17:11:10.036Z,13.67
2018-12-01T17:13:48.295Z,15.67
2018-12-01T17:16:26.581Z,17.00
2018-12-01T17:19:01.679Z,13.67
2018-12-01T17:21:33.907Z,19.00
2018-12-01T17:24:10.458Z,17.00
2018-12-01T17:26:44.284Z,18.67
2018-12-01T17:29:21.058Z,17.00
2018-12-01T17:31:57.261Z,20.67
2018-12-01T17:34:31.230Z,17.00
2018-12-01T17:37:05.751Z,27.67
2018-12-01T17:42:21.749Z,26.33
2018-12-01T17:44:57.314Z,20.67
2018-12-01T17:47:29.709Z,21.00
2018-12-01T17:53:01.545Z,19.67
2018-12-01T17:55:47.108Z,19.67
2018-12-01T17:58:22.546Z,24.33
2018-12-01T18:00:57.832Z,23.67
2018-12-01T18:03:34.473Z,20.67
2018-12-01T18:06:19.939Z,23.67
2018-12-01T18:08:54.118Z,23.67
2018-12-01T18:11:35.262Z,21.67
2018-12-01T18:14:16.668Z,23.00
2018-12-01T18:16:50.106Z,23.00
2018-12-01T18:19:26.033Z,23.33
2018-12-01T18:22:02.282Z,25.67
2018-12-01T18:24:41.915Z,20.00
2018-12-01T18:27:21.212Z,30.67
2018-12-01T18:29:56.182Z,21.00
2018-12-01T18:32:32.792Z,23.00
2018-12-01T18:35:07.105Z,17.67
2018-12-01T18:37:41.236Z,18.33
2018-12-01T18:40:21.173Z,16.33
2018-12-01T18:43:01.075Z,19.67
2018-12-01T18:45:35.324Z,16.67
2018-12-01T18:48:11.164Z,15.67
2018-12-01T18:50:44.462Z,19.00
2018-12-01T18:53:20.013Z,24.00
2018-12-01T18:56:02.636Z,18.33
2018-12-01T18:58:38.273Z,19.00
2018-12-01T19:01:19.115Z,24.67
2018-12-01T19:03:59.092Z,25.67
2018-12-01T19:06:37.692Z,24.00
2018-12-01T19:09:11.754Z,22.67
2018-12-01T19:11:51.716Z,21.00
2018-12-01T19:14:28.588Z,21.67
2018-12-01T19:17:04.971Z,20.00
2018-12-01T19:19:49.224Z,21.00
2018-12-01T19:22:21.271Z,24.67
2018-12-01T19:24:59.200Z,20.67
2018-12-01T19:27:36.419Z,15.33
2018-12-01T19:30:16.261Z,15.67
2018-12-01T19:32:56.043Z,14.33
2018-12-01T19:35:32.839Z,17.00
2018-12-01T19:38:12.001Z,16.67
2018-12-01T19:43:40.370Z,19.00
2018-12-01T19:46:20.676Z,14.33
2018-12-01T19:48:55.408Z,16.00
2018-12-01T19:51:30.735Z,19.00
2018-12-01T19:54:08.230Z,18.33
2018-12-01T19:56:40.815Z,15.33
2018-12-01T19:59:17.338Z,16.33
2018-12-01T20:01:56.632Z,21.67
2018-12-01T20:04:31.299Z,19.33
2018-12-01T20:07:06.440Z,17.67
2018-12-01T20:09:42.167Z,23.00
2018-12-01T20:12:18.497Z,20.67
2018-12-01T20:14:58.677Z,19.00
2018-12-01T20:17:36.490Z,17.33
2018-12-01T20:20:09.660Z,20.33
2018-12-01T20:22:45.358Z,22.33
2018-12-01T20:25:19.569Z,19.67
2018-12-01T20:27:55.754Z,19.67
2018-12-01T20:30:30.852Z,18.00
2018-12-01T20:33:05.253Z,17.33
2018-12-01T20:35:43.321Z,20.00
2018-12-01T20:38:19.821Z,19.67
2018-12-01T20:40:58.678Z,21.67
2018-12-01T20:43:34.714Z,21.00
2018-12-01T20:46:12.330Z,18.33
2018-12-01T20:48:46.950Z,20.33
2018-12-01T20:51:25.307Z,15.33
2018-12-01T20:54:05.322Z,19.67
2018-12-01T20:57:07.523Z,19.33
2018-12-01T20:59:53.198Z,19.00
2018-12-01T21:02:32.490Z,16.67
2018-12-01T21:05:05.435Z,17.00
2018-12-01T21:07:41.399Z,19.67
2018-12-01T21:10:49.477Z,16.67
2018-12-01T21:13:25.761Z,17.33
2018-12-01T21:16:01.310Z,17.67
2018-12-01T21:21:19.642Z,16.67
2018-12-01T21:24:03.080Z,19.00
2018-12-01T21:26:36.445Z,12.00
2018-12-01T21:29:14.182Z,17.33
2018-12-01T21:31:48.361Z,13.33
2018-12-01T21:34:25.056Z,14.33
2018-12-01T21:36:58.914Z,15.67
2018-12-01T21:39:29.959Z,14.67
2018-12-01T21:44:46.255Z,14.00
2018-12-01T21:47:24.710Z,14.67
2018-12-01T21:50:02.286Z,15.00
2018-12-01T21:52:43.718Z,14.67
2018-12-01T21:55:34.659Z,14.00
2018-12-01T21:58:11.281Z,15.33
2018-12-01T22:01:01.361Z,13.50
2018-12-01T22:03:39.925Z,10.67
2018-12-01T22:06:18.789Z,14.67
2018-12-01T22:08:54.268Z,19.00
2018-12-01T22:11:33.904Z,12.00
2018-12-01T22:14:12.079Z,16.33
2018-12-01T22:16:47.649Z,14.67
2018-12-01T22:19:25.777Z,11.33
2018-12-01T22:22:01.938Z,15.67
2018-12-01T22:24:37.657Z,14.00
2018-12-01T22:27:20.430Z,10.67
2018-12-01T22:29:57.211Z,12.00
2018-12-01T22:32:30.907Z,16.33
2018-12-01T22:35:05.401Z,10.00
2018-12-01T22:37:39.496Z,12.00
2018-12-01T22:40:34.626Z,12.67
2018-12-01T22:43:09.054Z,14.67
2018-12-01T22:45:41.862Z,12.00
2018-12-01T22:48:25.396Z,12.00
2018-12-01T22:51:00.224Z,10.67
2018-12-01T22:53:35.878Z,10.00
2018-12-01T22:56:13.959Z,9.33
2018-12-01T22:58:49.347Z,10.67
2018-12-01T23:01:29.904Z,12.00
2018-12-01T23:04:05.239Z,10.00
2018-12-01T23:06:44.361Z,10.00
2018-12-01T23:09:18.480Z,10.00
2018-12-01T23:11:55.079Z,12.00
2018-12-01T23:14:33.996Z,9.67
2018-12-01T23:17:13.440Z,9.00
2018-12-01T23:19:49.333Z,10.00
2018-12-01T23:22:27.917Z,8.67
2018-12-01T23:25:03.334Z,10.67
2018-12-01T23:27:34.133Z,10.67
2018-12-01T23:30:25.553Z,10.00
2018-12-01T23:33:10.315Z,10.20
2018-12-01T23:35:47.118Z,10.00
2018-12-01T23:38:25.328Z,11.33
2018-12-01T23:40:59.939Z,10.00
2018-12-01T23:43:36.184Z,10.00
2018-12-01T23:46:13.927Z,12.00
2018-12-01T23:48:50.421Z,10.67
2018-12-01T23:51:40.838Z,12.00
2018-12-01T23:54:20.941Z,11.00
2018-12-01T23:56:57.140Z,10.67
2018-12-01T23:59:29.298Z,10.33
